createdAt,value
2023-09-16T00:01:08.715Z,937.1
2023-09-16T00:02:24.844Z,937
2023-09-16T00:03:40.977Z,937
2023-09-16T00:04:57.112Z,937
2023-09-16T00:06:13.249Z,937
2023-09-16T00:07:29.380Z,936.9
2023-09-16T00:08:45.500Z,937
2023-09-16T00:10:01.627Z,937
2023-09-16T00:11:17.772Z,937
2023-09-16T00:12:33.910Z,937
2023-09-16T00:13:49.058Z,936.9
2023-09-16T00:15:05.187Z,937
2023-09-16T00:16:21.321Z,937
2023-09-16T00:17:37.454Z,937
2023-09-16T00:18:53.577Z,937
2023-09-16T00:20:09.713Z,937
2023-09-16T00:21:25.850Z,937
2023-09-16T00:22:41.973Z,937
2023-09-16T00:23:58.113Z,937
2023-09-16T00:25:14.236Z,936.9
2023-09-16T00:26:30.379Z,937
2023-09-16T00:27:46.506Z,937
2023-09-16T00:29:02.633Z,937
2023-09-16T00:30:17.787Z,937
2023-09-16T00:31:33.923Z,937
2023-09-16T00:32:50.054Z,937
2023-09-16T00:34:06.176Z,937
2023-09-16T00:35:22.308Z,936.9
2023-09-16T00:36:38.447Z,936.9
2023-09-16T00:37:54.589Z,936.9
2023-09-16T00:39:10.711Z,937
2023-09-16T00:40:26.842Z,937
2023-09-16T00:41:42.979Z,937.1
2023-09-16T00:42:59.105Z,937
2023-09-16T00:44:15.245Z,937
2023-09-16T00:45:31.366Z,937.1
2023-09-16T00:46:47.510Z,937.1
2023-09-16T00:48:02.653Z,937.1
2023-09-16T00:49:18.790Z,937.1
2023-09-16T00:50:34.911Z,937.1
2023-09-16T00:51:51.046Z,937.1
2023-09-16T00:53:07.183Z,937.1
2023-09-16T00:54:23.315Z,937.1
2023-09-16T00:55:39.439Z,937.2
2023-09-16T00:56:55.574Z,937.2
2023-09-16T00:58:11.708Z,937.2
2023-09-16T00:59:27.837Z,937.2
2023-09-16T01:00:43.969Z,937.2
2023-09-16T01:02:00.106Z,937.1
2023-09-16T01:03:16.237Z,937.1
2023-09-16T01:04:32.365Z,937.1
2023-09-16T01:05:47.521Z,937.2
2023-09-16T01:07:03.647Z,937.1
2023-09-16T01:08:19.783Z,937.2
2023-09-16T01:09:35.913Z,937.1
2023-09-16T01:10:52.052Z,937.2
2023-09-16T01:12:08.172Z,937.1
2023-09-16T01:13:24.310Z,937.2
2023-09-16T01:14:40.435Z,937.1
2023-09-16T01:15:56.580Z,937.2
2023-09-16T01:17:12.704Z,937.1
2023-09-16T01:18:28.837Z,937.2
2023-09-16T01:19:44.973Z,937.2
2023-09-16T01:21:01.102Z,937.1
2023-09-16T01:22:17.227Z,937.2
2023-09-16T01:23:32.385Z,937.2
2023-09-16T01:24:48.519Z,937.2
2023-09-16T01:26:04.651Z,937.2
2023-09-16T01:27:20.781Z,937.3
2023-09-16T01:28:36.914Z,937.3
2023-09-16T01:29:53.045Z,937.2
2023-09-16T01:31:09.171Z,937.2
2023-09-16T01:32:25.311Z,937.2
2023-09-16T01:33:41.437Z,937.2
2023-09-16T01:34:57.567Z,937.3
2023-09-16T01:36:13.710Z,937.3
2023-09-16T01:37:29.833Z,937.3
2023-09-16T01:38:45.974Z,937.3
2023-09-16T01:40:02.084Z,937.3
2023-09-16T01:41:18.232Z,937.3
2023-09-16T01:42:34.363Z,937.3
2023-09-16T01:43:49.517Z,937.3
2023-09-16T01:45:05.648Z,937.2
2023-09-16T01:46:21.774Z,937.2
2023-09-16T01:47:37.911Z,937.3
2023-09-16T01:50:10.173Z,937.2
2023-09-16T01:51:26.302Z,937.2
2023-09-16T01:52:42.447Z,937.3
2023-09-16T01:53:58.577Z,937.3
2023-09-16T01:55:14.711Z,937.3
2023-09-16T01:56:30.832Z,937.3
2023-09-16T01:57:46.970Z,937.3
2023-09-16T01:59:03.095Z,937.3
2023-09-16T02:00:19.234Z,937.4
2023-09-16T02:01:34.382Z,937.3
2023-09-16T02:02:50.510Z,937.3
2023-09-16T02:04:06.646Z,937.3
2023-09-16T02:05:22.777Z,937.3
2023-09-16T02:06:38.908Z,937.3
2023-09-16T02:07:55.030Z,937.4
2023-09-16T02:09:11.180Z,937.4
2023-09-16T02:10:27.290Z,937.4
2023-09-16T02:11:43.438Z,937.3
2023-09-16T02:14:15.707Z,937.3
2023-09-16T02:15:31.832Z,937.3
2023-09-16T02:16:47.961Z,937.2
2023-09-16T02:18:04.102Z,937.2
2023-09-16T02:19:20.222Z,937.3
2023-09-16T02:20:36.359Z,937.2
2023-09-16T02:21:51.505Z,937.2
2023-09-16T02:23:06.664Z,937.2
2023-09-16T02:24:22.795Z,937.2
2023-09-16T02:25:38.938Z,937.2
2023-09-16T02:26:55.064Z,937.2
2023-09-16T02:28:11.191Z,937.2
2023-09-16T02:29:27.331Z,937.2
2023-09-16T02:30:43.458Z,937.2
2023-09-16T02:31:59.589Z,937.2
2023-09-16T02:33:15.731Z,937.2
2023-09-16T02:34:31.855Z,937.2
2023-09-16T02:35:47.000Z,937.2
2023-09-16T02:37:04.128Z,937.2
2023-09-16T02:38:20.255Z,937.2
2023-09-16T02:39:35.401Z,937.2
2023-09-16T02:40:51.530Z,937.2
2023-09-16T02:42:07.670Z,937.2
2023-09-16T02:43:23.800Z,937.2
2023-09-16T02:44:39.935Z,937.2
2023-09-16T02:45:56.066Z,937.2
2023-09-16T02:47:12.193Z,937.2
2023-09-16T02:48:28.333Z,937.2
2023-09-16T02:49:44.462Z,937.2
2023-09-16T02:51:00.594Z,937.2
2023-09-16T02:52:16.719Z,937.2
2023-09-16T02:53:32.866Z,937.2
2023-09-16T02:54:48.988Z,937.2
2023-09-16T02:56:05.115Z,937.2
2023-09-16T02:57:21.250Z,937.2
2023-09-16T02:58:37.381Z,937.2
2023-09-16T02:59:52.532Z,937.1
2023-09-16T03:01:08.672Z,937.1
2023-09-16T03:02:24.793Z,937.1
2023-09-16T03:03:40.925Z,937.2
2023-09-16T03:04:57.056Z,937.1
2023-09-16T03:06:13.191Z,937.1
2023-09-16T03:07:29.324Z,937.1
2023-09-16T03:08:45.458Z,937.1
2023-09-16T03:10:01.583Z,937
2023-09-16T03:11:17.723Z,937
2023-09-16T03:12:33.850Z,937
2023-09-16T03:13:49.986Z,936.9
2023-09-16T03:15:06.115Z,936.9
2023-09-16T03:16:22.245Z,936.9
2023-09-16T03:17:37.405Z,936.9
2023-09-16T03:18:53.529Z,936.9
2023-09-16T03:20:09.665Z,936.9
2023-09-16T03:21:25.795Z,936.9
2023-09-16T03:22:41.913Z,936.9
2023-09-16T03:23:58.051Z,936.9
2023-09-16T03:25:14.192Z,936.8
2023-09-16T03:26:30.330Z,936.8
2023-09-16T03:27:46.462Z,936.9
2023-09-16T03:29:02.592Z,936.8
2023-09-16T03:30:18.724Z,936.9
2023-09-16T03:31:34.853Z,936.9
2023-09-16T03:32:50.975Z,936.9
2023-09-16T03:34:07.120Z,936.9
2023-09-16T03:35:22.266Z,936.9
2023-09-16T03:36:38.400Z,936.9
2023-09-16T03:37:54.523Z,936.9
2023-09-16T03:39:10.651Z,936.9
2023-09-16T03:40:26.791Z,936.9
2023-09-16T03:41:42.921Z,936.9
2023-09-16T03:42:59.053Z,936.9
2023-09-16T03:44:15.189Z,936.9
2023-09-16T03:45:31.317Z,936.8
2023-09-16T03:46:47.459Z,936.8
2023-09-16T03:48:03.576Z,936.8
2023-09-16T03:49:19.717Z,936.7
2023-09-16T03:50:35.847Z,936.7
2023-09-16T03:51:50.998Z,936.7
2023-09-16T03:53:07.130Z,936.7
2023-09-16T03:54:23.261Z,936.7
2023-09-16T03:55:39.393Z,936.7
2023-09-16T03:56:55.532Z,936.6
2023-09-16T03:58:11.658Z,936.7
2023-09-16T03:59:27.786Z,936.7
2023-09-16T04:00:43.923Z,936.7
2023-09-16T04:02:00.059Z,936.7
2023-09-16T04:03:16.191Z,936.7
2023-09-16T04:04:32.310Z,936.7
2023-09-16T04:05:48.442Z,936.7
2023-09-16T04:07:04.578Z,936.7
2023-09-16T04:08:19.738Z,936.7
2023-09-16T04:09:35.859Z,936.7
2023-09-16T04:10:51.990Z,936.8
2023-09-16T04:12:08.127Z,936.7
2023-09-16T04:13:24.264Z,936.8
2023-09-16T04:14:40.000Z,936.8
2023-09-16T04:15:56.515Z,936.8
2023-09-16T04:17:12.655Z,936.7
2023-09-16T04:18:28.792Z,936.7
2023-09-16T04:19:44.923Z,936.7
2023-09-16T04:21:01.048Z,936.7
2023-09-16T04:22:17.179Z,936.7
2023-09-16T04:23:33.312Z,936.7
2023-09-16T04:24:49.453Z,936.7
2023-09-16T04:26:04.597Z,936.7
2023-09-16T04:27:20.720Z,936.7
2023-09-16T04:28:36.854Z,936.7
2023-09-16T04:29:52.990Z,936.7
2023-09-16T04:31:09.117Z,936.7
2023-09-16T04:32:25.257Z,936.7
2023-09-16T04:33:41.389Z,936.7
2023-09-16T04:34:57.517Z,936.7
2023-09-16T04:36:13.655Z,936.8
2023-09-16T04:37:29.782Z,936.7
2023-09-16T04:38:45.919Z,936.8
2023-09-16T04:40:02.037Z,936.8
2023-09-16T04:41:18.180Z,936.7
2023-09-16T04:42:34.318Z,936.7
2023-09-16T04:43:49.458Z,936.7
2023-09-16T04:45:05.591Z,936.7
2023-09-16T04:46:21.726Z,936.7
2023-09-16T04:47:37.858Z,936.7
2023-09-16T04:48:53.991Z,936.7
2023-09-16T04:50:10.121Z,936.6
2023-09-16T04:51:26.252Z,936.7
2023-09-16T04:52:42.389Z,936.6
2023-09-16T04:53:58.512Z,936.6
2023-09-16T04:55:14.647Z,936.5
2023-09-16T04:56:30.777Z,936.5
2023-09-16T04:57:46.918Z,936.5
2023-09-16T04:59:03.052Z,936.5
2023-09-16T05:00:19.179Z,936.5
2023-09-16T05:01:34.328Z,936.5
2023-09-16T05:02:50.458Z,936.4
2023-09-16T05:04:06.587Z,936.4
2023-09-16T05:05:22.717Z,936.4
2023-09-16T05:06:38.859Z,936.4
2023-09-16T05:07:54.982Z,936.4
2023-09-16T05:09:11.117Z,936.4
2023-09-16T05:10:27.256Z,936.4
2023-09-16T05:11:43.388Z,936.4
2023-09-16T05:12:59.494Z,936.4
2023-09-16T05:14:15.647Z,936.4
2023-09-16T05:15:31.781Z,936.4
2023-09-16T05:16:47.915Z,936.4
2023-09-16T05:18:04.039Z,936.4
2023-09-16T05:19:20.174Z,936.4
2023-09-16T05:20:35.326Z,936.4
2023-09-16T05:21:51.000Z,936.4
2023-09-16T05:23:07.590Z,936.4
2023-09-16T05:24:23.721Z,936.5
2023-09-16T05:25:39.849Z,936.4
2023-09-16T05:26:55.981Z,936.5
2023-09-16T05:28:12.114Z,936.5
2023-09-16T05:29:28.252Z,936.5
2023-09-16T05:30:44.382Z,936.5
2023-09-16T05:32:00.511Z,936.5
2023-09-16T05:33:16.642Z,936.4
2023-09-16T05:34:32.000Z,936.4
2023-09-16T05:35:48.910Z,936.4
2023-09-16T05:37:05.035Z,936.4
2023-09-16T05:38:20.187Z,936.4
2023-09-16T05:39:36.319Z,936.4
2023-09-16T05:40:52.458Z,936.4
2023-09-16T05:42:08.592Z,936.4
2023-09-16T05:43:24.721Z,936.4
2023-09-16T05:44:40.853Z,936.4
2023-09-16T05:45:56.983Z,936.4
2023-09-16T05:47:13.000Z,936.4
2023-09-16T05:48:29.247Z,936.4
2023-09-16T05:49:45.378Z,936.4
2023-09-16T05:51:01.514Z,936.4
2023-09-16T05:52:17.649Z,936.4
2023-09-16T05:53:33.783Z,936.4
2023-09-16T05:54:48.925Z,936.4
2023-09-16T05:56:05.057Z,936.4
2023-09-16T05:57:21.190Z,936.3
2023-09-16T05:58:37.000Z,936.4
2023-09-16T05:59:53.450Z,936.4
2023-09-16T06:01:09.587Z,936.4
2023-09-16T06:02:25.714Z,936.3
2023-09-16T06:03:41.843Z,936.3
2023-09-16T06:04:57.981Z,936.4
2023-09-16T06:06:14.118Z,936.4
2023-09-16T06:07:30.249Z,936.4
2023-09-16T06:08:46.371Z,936.4
2023-09-16T06:10:02.493Z,936.4
2023-09-16T06:11:17.662Z,936.4
2023-09-16T06:12:33.000Z,936.4
2023-09-16T06:13:49.923Z,936.4
2023-09-16T06:15:06.051Z,936.4
2023-09-16T06:16:22.182Z,936.4
2023-09-16T06:17:38.323Z,936.4
2023-09-16T06:18:54.454Z,936.4
2023-09-16T06:20:10.584Z,936.4
2023-09-16T06:21:26.717Z,936.4
2023-09-16T06:22:42.840Z,936.4
2023-09-16T06:23:58.976Z,936.4
2023-09-16T06:25:15.000Z,936.3
2023-09-16T06:26:31.241Z,936.3
2023-09-16T06:27:46.388Z,936.3
2023-09-16T06:29:02.528Z,936.3
2023-09-16T06:30:18.654Z,936.3
2023-09-16T06:31:34.784Z,936.4
2023-09-16T06:32:50.923Z,936.4
2023-09-16T06:34:07.050Z,936.4
2023-09-16T06:35:23.182Z,936.4
2023-09-16T06:36:39.319Z,936.4
2023-09-16T06:37:55.000Z,936.5
2023-09-16T06:39:11.587Z,936.5
2023-09-16T06:40:26.736Z,936.4
2023-09-16T06:41:42.875Z,936.4
2023-09-16T06:42:59.003Z,936.4
2023-09-16T06:44:15.134Z,936.4
2023-09-16T06:45:31.270Z,936.4
2023-09-16T06:46:47.407Z,936.4
2023-09-16T06:48:03.527Z,936.4
2023-09-16T06:49:19.660Z,936.4
2023-09-16T06:50:35.000Z,936.4
2023-09-16T06:51:51.930Z,936.4
2023-09-16T06:53:08.063Z,936.4
2023-09-16T06:54:24.197Z,936.4
2023-09-16T06:55:40.323Z,936.4
2023-09-16T06:56:56.459Z,936.4
2023-09-16T06:58:11.610Z,936.3
2023-09-16T06:59:27.736Z,936.4
2023-09-16T07:00:43.867Z,936.3
2023-09-16T07:02:00.001Z,936.4
2023-09-16T07:03:16.144Z,936.3
2023-09-16T07:04:32.257Z,936.3
2023-09-16T07:05:48.403Z,936.3
2023-09-16T07:07:04.534Z,936.3
2023-09-16T07:08:20.667Z,936.4
2023-09-16T07:09:36.793Z,936.4
2023-09-16T07:10:52.930Z,936.4
2023-09-16T07:12:09.070Z,936.4
2023-09-16T07:13:25.191Z,936.4
2023-09-16T07:14:41.330Z,936.4
2023-09-16T07:15:57.460Z,936.4
2023-09-16T07:17:13.590Z,936.4
2023-09-16T07:18:29.720Z,936.4
2023-09-16T07:19:45.851Z,936.3
2023-09-16T07:21:01.001Z,936.3
2023-09-16T07:22:17.139Z,936.3
2023-09-16T07:23:33.266Z,936.3
2023-09-16T07:24:49.408Z,936.3
2023-09-16T07:26:05.523Z,936.3
2023-09-16T07:27:21.668Z,936.3
2023-09-16T07:28:37.801Z,936.4
2023-09-16T07:29:53.924Z,936.3
2023-09-16T07:31:10.059Z,936.3
2023-09-16T07:32:26.182Z,936.4
2023-09-16T07:33:42.315Z,936.4
2023-09-16T07:34:58.456Z,936.4
2023-09-16T07:36:14.582Z,936.4
2023-09-16T07:37:30.721Z,936.3
2023-09-16T07:38:45.875Z,936.3
2023-09-16T07:40:01.986Z,936.2
2023-09-16T07:41:18.133Z,936.3
2023-09-16T07:42:34.260Z,936.3
2023-09-16T07:43:50.402Z,936.3
2023-09-16T07:45:06.524Z,936.4
2023-09-16T07:46:22.642Z,936.4
2023-09-16T07:47:38.785Z,936.5
2023-09-16T07:48:54.923Z,936.5
2023-09-16T07:50:11.039Z,936.5
2023-09-16T07:51:27.172Z,936.5
2023-09-16T07:52:43.322Z,936.5
2023-09-16T07:53:59.458Z,936.5
2023-09-16T07:55:15.588Z,936.6
2023-09-16T07:56:30.716Z,936.5
2023-09-16T07:57:46.866Z,936.6
2023-09-16T07:59:02.993Z,936.6
2023-09-16T08:00:19.127Z,936.6
2023-09-16T08:01:35.258Z,936.6
2023-09-16T08:02:51.389Z,936.6
2023-09-16T08:04:07.524Z,936.6
2023-09-16T08:05:23.655Z,936.6
2023-09-16T08:06:39.790Z,936.6
2023-09-16T08:07:55.923Z,936.6
2023-09-16T08:09:12.047Z,936.6
2023-09-16T08:10:28.174Z,936.7
2023-09-16T08:11:44.307Z,936.7
2023-09-16T08:13:00.453Z,936.7
2023-09-16T08:14:15.592Z,936.7
2023-09-16T08:15:31.732Z,936.7
2023-09-16T08:16:47.859Z,936.7
2023-09-16T08:18:03.998Z,936.6
2023-09-16T08:19:20.122Z,936.6
2023-09-16T08:20:36.247Z,936.6
2023-09-16T08:21:52.381Z,936.6
2023-09-16T08:23:08.512Z,936.7
2023-09-16T08:24:24.655Z,936.7
2023-09-16T08:25:40.786Z,936.7
2023-09-16T08:26:56.913Z,936.7
2023-09-16T08:28:13.055Z,936.7
2023-09-16T08:29:29.186Z,936.7
2023-09-16T08:30:44.329Z,936.7
2023-09-16T08:32:00.458Z,936.7
2023-09-16T08:33:16.591Z,936.7
2023-09-16T08:34:32.743Z,936.7
2023-09-16T08:35:48.861Z,936.7
2023-09-16T08:37:04.990Z,936.7
2023-09-16T08:38:21.122Z,936.8
2023-09-16T08:39:37.245Z,936.8
2023-09-16T08:40:53.377Z,936.8
2023-09-16T08:42:09.506Z,936.8
2023-09-16T08:43:25.650Z,936.8
2023-09-16T08:44:41.782Z,936.8
2023-09-16T08:45:57.920Z,936.8
2023-09-16T08:47:13.058Z,936.8
2023-09-16T08:48:29.201Z,936.8
2023-09-16T08:49:45.321Z,936.7
2023-09-16T08:51:01.455Z,936.7
2023-09-16T08:52:17.593Z,936.7
2023-09-16T08:53:33.727Z,936.7
2023-09-16T08:54:49.852Z,936.6
2023-09-16T08:56:05.988Z,936.6
2023-09-16T08:57:22.126Z,936.6
2023-09-16T08:58:38.248Z,936.6
2023-09-16T08:59:54.370Z,936.6
2023-09-16T09:01:10.511Z,936.6
2023-09-16T09:02:26.642Z,936.7
2023-09-16T09:03:41.794Z,936.7
2023-09-16T09:04:57.932Z,936.7
2023-09-16T09:06:14.060Z,936.6
2023-09-16T09:07:30.201Z,936.6
2023-09-16T09:08:46.324Z,936.6
2023-09-16T09:10:02.445Z,936.7
2023-09-16T09:11:18.590Z,936.7
2023-09-16T09:12:34.720Z,936.7
2023-09-16T09:13:50.850Z,936.7
2023-09-16T09:15:06.978Z,936.7
2023-09-16T09:16:23.102Z,936.7
2023-09-16T09:17:39.241Z,936.7
2023-09-16T09:18:55.000Z,936.7
2023-09-16T09:20:11.507Z,936.7
2023-09-16T09:21:26.661Z,936.7
2023-09-16T09:22:42.779Z,936.7
2023-09-16T09:23:58.932Z,936.7
2023-09-16T09:25:15.057Z,936.7
2023-09-16T09:26:31.180Z,936.7
2023-09-16T09:27:47.318Z,936.7
2023-09-16T09:29:03.454Z,936.7
2023-09-16T09:30:19.577Z,936.7
2023-09-16T09:31:35.723Z,936.7
2023-09-16T09:32:51.849Z,936.7
2023-09-16T09:34:07.982Z,936.7
2023-09-16T09:35:24.110Z,936.7
2023-09-16T09:36:40.243Z,936.7
2023-09-16T09:37:55.389Z,936.7
2023-09-16T09:39:11.522Z,936.7
2023-09-16T09:40:27.664Z,936.7
2023-09-16T09:41:43.790Z,936.7
2023-09-16T09:42:59.923Z,936.7
2023-09-16T09:44:16.045Z,936.7
2023-09-16T09:45:32.192Z,936.8
2023-09-16T09:46:48.326Z,936.7
2023-09-16T09:48:04.455Z,936.8
2023-09-16T09:49:20.591Z,936.7
2023-09-16T09:50:36.713Z,936.8
2023-09-16T09:51:52.851Z,936.7
2023-09-16T09:53:08.979Z,936.7
2023-09-16T09:54:25.115Z,936.7
2023-09-16T09:55:40.260Z,936.7
2023-09-16T09:56:56.399Z,936.7
2023-09-16T09:58:12.526Z,936.6
2023-09-16T09:59:28.660Z,936.6
2023-09-16T10:00:44.789Z,936.6
2023-09-16T10:02:00.920Z,936.6
2023-09-16T10:03:17.051Z,936.6
2023-09-16T10:04:33.179Z,936.6
2023-09-16T10:05:49.318Z,936.6
2023-09-16T10:07:05.458Z,936.6
2023-09-16T10:08:21.585Z,936.5
2023-09-16T10:09:37.713Z,936.5
2023-09-16T10:10:53.832Z,936.5
2023-09-16T10:12:08.989Z,936.5
2023-09-16T10:13:25.135Z,936.5
2023-09-16T10:14:41.257Z,936.5
2023-09-16T10:15:57.394Z,936.5
2023-09-16T10:17:13.517Z,936.5
2023-09-16T10:18:29.652Z,936.4
2023-09-16T10:19:45.787Z,936.4
2023-09-16T10:21:01.925Z,936.4
2023-09-16T10:22:18.057Z,936.4
2023-09-16T10:23:34.205Z,936.4
2023-09-16T10:24:50.313Z,936.3
2023-09-16T10:26:06.445Z,936.4
2023-09-16T10:27:22.591Z,936.3
2023-09-16T10:28:37.735Z,936.3
2023-09-16T10:29:53.860Z,936.4
2023-09-16T10:31:09.990Z,936.3
2023-09-16T10:32:26.128Z,936.3
2023-09-16T10:33:42.255Z,936.3
2023-09-16T10:34:58.384Z,936.3
2023-09-16T10:36:14.529Z,936.3
2023-09-16T10:37:30.663Z,936.2
2023-09-16T10:38:46.790Z,936.3
2023-09-16T10:40:02.901Z,936.3
2023-09-16T10:41:19.061Z,936.3
2023-09-16T10:42:35.189Z,936.3
2023-09-16T10:43:51.315Z,936.3
2023-09-16T10:45:07.450Z,936.3
2023-09-16T10:46:22.598Z,936.3
2023-09-16T10:47:38.733Z,936.3
2023-09-16T10:48:54.864Z,936.4
2023-09-16T10:50:10.985Z,936.4
2023-09-16T10:51:27.132Z,936.4
2023-09-16T10:52:43.261Z,936.4
2023-09-16T10:53:59.390Z,936.4
2023-09-16T10:55:15.525Z,936.4
2023-09-16T10:56:30.690Z,936.3
2023-09-16T10:57:46.812Z,936.3
2023-09-16T10:59:02.947Z,936.3
2023-09-16T11:00:19.086Z,936.3
2023-09-16T11:01:35.213Z,936.3
2023-09-16T11:02:51.345Z,936.3
2023-09-16T11:04:07.478Z,936.3
2023-09-16T11:05:23.612Z,936.3
2023-09-16T11:06:39.743Z,936.3
2023-09-16T11:07:55.871Z,936.2
2023-09-16T11:09:12.008Z,936.3
2023-09-16T11:10:28.140Z,936.3
2023-09-16T11:11:44.266Z,936.3
2023-09-16T11:12:59.421Z,936.3
2023-09-16T11:14:15.550Z,936.3
2023-09-16T11:15:31.680Z,936.2
2023-09-16T11:16:47.807Z,936.3
2023-09-16T11:18:03.950Z,936.2
2023-09-16T11:19:20.079Z,936.2
2023-09-16T11:20:36.215Z,936.2
2023-09-16T11:21:52.342Z,936.2
2023-09-16T11:23:08.469Z,936.2
2023-09-16T11:24:24.611Z,936.2
2023-09-16T11:25:40.744Z,936.2
2023-09-16T11:26:56.866Z,936.2
2023-09-16T11:28:13.003Z,936.2
2023-09-16T11:29:28.154Z,936.2
2023-09-16T11:30:44.282Z,936.1
2023-09-16T11:32:00.415Z,936.1
2023-09-16T11:33:16.548Z,936.1
2023-09-16T11:34:32.675Z,936.1
2023-09-16T11:35:48.812Z,936.2
2023-09-16T11:37:04.940Z,936.1
2023-09-16T11:38:21.073Z,936.1
2023-09-16T11:39:37.208Z,936.1
2023-09-16T11:40:53.346Z,936.1
2023-09-16T11:42:09.470Z,936.1
2023-09-16T11:43:25.608Z,936.1
2023-09-16T11:44:41.741Z,936
2023-09-16T11:45:57.871Z,936
2023-09-16T11:47:13.012Z,936
2023-09-16T11:48:29.153Z,936
2023-09-16T11:49:45.284Z,935.9
2023-09-16T11:51:01.419Z,936
2023-09-16T11:52:17.544Z,936
2023-09-16T11:53:33.671Z,935.9
2023-09-16T11:54:49.816Z,935.9
2023-09-16T11:56:05.941Z,935.9
2023-09-16T11:57:22.073Z,935.9
2023-09-16T11:58:38.204Z,935.9
2023-09-16T11:59:54.341Z,935.9
2023-09-16T12:01:10.479Z,935.9
2023-09-16T12:02:26.610Z,935.9
2023-09-16T12:03:41.744Z,936
2023-09-16T12:04:57.887Z,935.9
2023-09-16T12:06:14.012Z,936
2023-09-16T12:07:30.152Z,935.9
2023-09-16T12:08:46.285Z,935.9
2023-09-16T12:10:02.402Z,935.8
2023-09-16T12:11:18.546Z,935.8
2023-09-16T12:12:34.678Z,935.8
2023-09-16T12:13:50.816Z,935.8
2023-09-16T12:15:06.938Z,935.8
2023-09-16T12:16:23.073Z,935.8
2023-09-16T12:17:39.211Z,935.8
2023-09-16T12:18:55.339Z,935.7
2023-09-16T12:20:10.482Z,935.7
2023-09-16T12:21:26.619Z,935.7
2023-09-16T12:22:42.752Z,935.7
2023-09-16T12:23:58.887Z,935.7
2023-09-16T12:25:15.020Z,935.7
2023-09-16T12:26:31.150Z,935.7
2023-09-16T12:27:47.285Z,935.7
2023-09-16T12:29:03.411Z,935.8
2023-09-16T12:30:19.541Z,935.8
2023-09-16T12:31:35.660Z,935.8
2023-09-16T12:32:51.809Z,935.9
2023-09-16T12:34:07.948Z,935.8
2023-09-16T12:35:24.063Z,935.9
2023-09-16T12:36:40.210Z,935.9
2023-09-16T12:37:55.352Z,935.9
2023-09-16T12:39:11.487Z,935.9
2023-09-16T12:40:27.617Z,935.8
2023-09-16T12:41:43.751Z,935.9
2023-09-16T12:42:59.891Z,935.8
2023-09-16T12:44:16.020Z,935.8
2023-09-16T12:45:32.154Z,935.8
2023-09-16T12:46:48.289Z,935.8
2023-09-16T12:48:04.411Z,935.8
2023-09-16T12:49:20.544Z,935.8
2023-09-16T12:50:36.671Z,935.8
2023-09-16T12:51:52.808Z,935.8
2023-09-16T12:53:08.934Z,935.8
2023-09-16T12:54:24.082Z,935.8
2023-09-16T12:55:40.222Z,935.7
2023-09-16T12:56:56.346Z,935.8
2023-09-16T12:58:12.480Z,935.8
2023-09-16T12:59:28.620Z,935.8
2023-09-16T13:00:44.747Z,935.8
2023-09-16T13:02:00.870Z,935.8
2023-09-16T13:03:17.010Z,935.8
2023-09-16T13:04:33.143Z,935.8
2023-09-16T13:05:49.284Z,935.8
2023-09-16T13:07:05.405Z,935.7
2023-09-16T13:08:21.542Z,935.8
2023-09-16T13:09:37.676Z,935.7
2023-09-16T13:10:52.822Z,935.7
2023-09-16T13:12:08.954Z,935.7
2023-09-16T13:13:25.086Z,935.7
2023-09-16T13:14:41.221Z,935.7
2023-09-16T13:15:57.354Z,935.7
2023-09-16T13:17:13.482Z,935.7
2023-09-16T13:18:29.612Z,935.6
2023-09-16T13:19:45.750Z,935.7
2023-09-16T13:21:01.872Z,935.7
2023-09-16T13:22:18.004Z,935.7
2023-09-16T13:23:34.147Z,935.7
2023-09-16T13:24:50.280Z,935.7
2023-09-16T13:26:06.400Z,935.7
2023-09-16T13:27:22.535Z,935.7
2023-09-16T13:28:37.694Z,935.6
2023-09-16T13:29:53.817Z,935.6
2023-09-16T13:31:09.954Z,935.7
2023-09-16T13:32:26.099Z,935.7
2023-09-16T13:33:42.222Z,935.6
2023-09-16T13:34:58.349Z,935.6
2023-09-16T13:36:14.488Z,935.6
2023-09-16T13:37:30.619Z,935.6
2023-09-16T13:38:46.752Z,935.6
2023-09-16T13:40:02.862Z,935.6
2023-09-16T13:41:19.007Z,935.6
2023-09-16T13:42:35.140Z,935.6
2023-09-16T13:43:51.280Z,935.6
2023-09-16T13:45:06.420Z,935.6
2023-09-16T13:46:22.542Z,935.6
2023-09-16T13:47:38.690Z,935.6
2023-09-16T13:48:54.817Z,935.5
2023-09-16T13:50:10.946Z,935.6
2023-09-16T13:51:27.085Z,935.5
2023-09-16T13:52:43.217Z,935.6
2023-09-16T13:53:59.351Z,935.6
2023-09-16T13:55:15.482Z,935.6
2023-09-16T13:56:31.600Z,935.5
2023-09-16T13:57:47.749Z,935.6
2023-09-16T13:59:03.880Z,935.6
2023-09-16T14:00:20.007Z,935.6
2023-09-16T14:01:35.165Z,935.6
2023-09-16T14:02:51.296Z,935.6
2023-09-16T14:04:07.420Z,935.6
2023-09-16T14:05:23.560Z,935.6
2023-09-16T14:06:39.686Z,935.7
2023-09-16T14:07:55.825Z,935.7
2023-09-16T14:09:11.951Z,935.6
2023-09-16T14:10:28.084Z,935.6
2023-09-16T14:11:44.225Z,935.6
2023-09-16T14:13:00.353Z,935.7
2023-09-16T14:14:16.486Z,935.6
2023-09-16T14:15:32.609Z,935.6
2023-09-16T14:16:48.746Z,935.6
2023-09-16T14:18:04.877Z,935.6
2023-09-16T14:19:21.003Z,935.6
2023-09-16T14:20:37.141Z,935.6
2023-09-16T14:21:52.294Z,935.6
2023-09-16T14:23:08.420Z,935.7
2023-09-16T14:24:24.555Z,935.7
2023-09-16T14:25:40.685Z,935.7
2023-09-16T14:26:56.815Z,935.7
2023-09-16T14:28:12.949Z,935.7
2023-09-16T14:29:29.085Z,935.7
2023-09-16T14:30:45.213Z,935.7
2023-09-16T14:32:01.347Z,935.7
2023-09-16T14:33:17.479Z,935.7
2023-09-16T14:34:33.609Z,935.7
2023-09-16T14:35:49.750Z,935.6
2023-09-16T14:37:05.877Z,935.6
2023-09-16T14:38:21.000Z,935.6
2023-09-16T14:39:37.163Z,935.6
2023-09-16T14:40:53.302Z,935.5
2023-09-16T14:42:09.420Z,935.6
2023-09-16T14:43:25.549Z,935.6
2023-09-16T14:44:41.690Z,935.5
2023-09-16T14:45:57.822Z,935.6
2023-09-16T14:47:13.952Z,935.6
2023-09-16T14:48:30.079Z,935.6
2023-09-16T14:49:46.222Z,935.6
2023-09-16T14:51:02.349Z,935.6
2023-09-16T14:52:18.478Z,935.6
2023-09-16T14:53:34.610Z,935.7
2023-09-16T14:54:49.762Z,935.7
2023-09-16T14:56:05.000Z,935.7
2023-09-16T14:57:22.028Z,935.7
2023-09-16T14:58:38.157Z,935.7
2023-09-16T14:59:54.292Z,935.7
2023-09-16T15:01:10.419Z,935.7
2023-09-16T15:02:26.558Z,935.7
2023-09-16T15:03:42.692Z,935.7
2023-09-16T15:04:58.818Z,935.7
2023-09-16T15:06:14.951Z,935.7
2023-09-16T15:07:31.083Z,935.7
2023-09-16T15:08:47.220Z,935.7
2023-09-16T15:10:03.352Z,935.7
2023-09-16T15:11:19.479Z,935.7
2023-09-16T15:12:35.612Z,935.7
2023-09-16T15:13:51.747Z,935.7
2023-09-16T15:15:06.904Z,935.6
2023-09-16T15:16:23.032Z,935.7
2023-09-16T15:17:39.166Z,935.7
2023-09-16T15:18:55.285Z,935.7
2023-09-16T15:20:11.432Z,935.7
2023-09-16T15:21:27.563Z,935.7
2023-09-16T15:22:43.693Z,935.7
2023-09-16T15:23:59.830Z,935.6
2023-09-16T15:25:15.963Z,935.7
2023-09-16T15:26:32.094Z,935.7
2023-09-16T15:27:48.220Z,935.7
2023-09-16T15:29:04.352Z,935.6
2023-09-16T15:30:20.494Z,935.6
2023-09-16T15:31:36.621Z,935.6
2023-09-16T15:32:51.776Z,935.6
2023-09-16T15:34:07.902Z,935.7
2023-09-16T15:35:24.032Z,935.7
2023-09-16T15:36:40.167Z,935.7
2023-09-16T15:37:56.295Z,935.7
2023-09-16T15:39:12.423Z,935.7
2023-09-16T15:40:28.556Z,935.7
2023-09-16T15:41:44.689Z,935.7
2023-09-16T15:43:00.824Z,935.8
2023-09-16T15:44:16.951Z,935.7
2023-09-16T15:45:33.086Z,935.8
2023-09-16T15:46:49.222Z,935.7
2023-09-16T15:48:05.351Z,935.7
2023-09-16T15:49:21.481Z,935.7
2023-09-16T15:50:37.613Z,935.7
2023-09-16T15:51:53.759Z,935.7
2023-09-16T15:53:08.895Z,935.8
2023-09-16T15:54:25.031Z,935.8
2023-09-16T15:55:41.160Z,935.8
2023-09-16T15:56:57.296Z,935.8
2023-09-16T15:58:13.425Z,935.8
2023-09-16T15:59:29.550Z,935.8
2023-09-16T16:00:45.686Z,935.8
2023-09-16T16:02:01.821Z,935.9
2023-09-16T16:03:17.948Z,935.9
2023-09-16T16:04:34.086Z,935.9
2023-09-16T16:05:50.213Z,935.9
2023-09-16T16:07:06.350Z,935.8
2023-09-16T16:08:22.478Z,935.8
2023-09-16T16:09:38.604Z,935.9
2023-09-16T16:10:54.732Z,935.9
2023-09-16T16:12:10.876Z,935.9
2023-09-16T16:13:26.027Z,935.9
2023-09-16T16:14:42.159Z,935.9
2023-09-16T16:15:58.294Z,935.9
2023-09-16T16:17:14.423Z,935.9
2023-09-16T16:18:30.554Z,935.8
2023-09-16T16:19:46.685Z,935.8
2023-09-16T16:21:02.819Z,935.8
2023-09-16T16:22:18.946Z,935.9
2023-09-16T16:23:35.080Z,935.8
2023-09-16T16:24:51.214Z,935.8
2023-09-16T16:26:07.342Z,935.8